createdAt,value
2023-05-20T07:54:32.044Z,25.10
2023-05-20T07:57:00.446Z,27.55
2023-05-20T07:59:29.238Z,22.20
2023-05-20T08:01:56.877Z,19.42
2023-05-20T08:04:25.023Z,17.35
2023-05-20T08:06:53.235Z,16.37
2023-05-20T08:09:30.808Z,18.92
2023-05-20T08:11:58.607Z,15.00
2023-05-20T08:14:25.840Z,20.30
2023-05-20T08:21:50.109Z,20.20
2023-05-20T08:24:17.963Z,19.73
2023-05-20T08:26:45.772Z,19.60
2023-05-20T08:29:12.959Z,16.73
2023-05-20T08:31:40.351Z,15.50
2023-05-20T08:34:08.175Z,18.50
2023-05-20T08:36:35.793Z,15.60
2023-05-20T08:39:04.436Z,13.88
2023-05-20T08:41:31.957Z,12.52
2023-05-20T08:44:02.655Z,17.38
2023-05-20T08:46:31.794Z,10.82
2023-05-20T08:48:59.629Z,12.27
2023-05-20T08:51:28.189Z,10.95
2023-05-20T08:56:23.710Z,13.75
2023-05-20T09:01:18.090Z,9.88
2023-05-20T09:03:45.359Z,11.05
2023-05-20T09:06:18.221Z,12.10
2023-05-20T09:08:45.371Z,10.23
2023-05-20T09:11:12.934Z,8.05
2023-05-20T09:13:40.136Z,8.57
2023-05-20T09:16:07.532Z,6.85
2023-05-20T09:18:38.309Z,8.55
2023-05-20T09:21:09.318Z,10.25
2023-05-20T09:23:39.508Z,9.75
2023-05-20T09:26:07.042Z,9.63
2023-05-20T09:28:36.152Z,8.90
2023-05-20T09:31:03.244Z,9.25
2023-05-20T09:33:32.322Z,9.57
2023-05-20T09:36:04.633Z,7.38
2023-05-20T09:38:38.242Z,6.97
2023-05-20T09:41:13.059Z,7.00
2023-05-20T09:43:41.023Z,6.97
2023-05-20T09:46:09.220Z,5.53
2023-05-20T09:48:39.945Z,6.40
2023-05-20T09:51:08.068Z,7.07
2023-05-20T09:53:36.131Z,5.75
2023-05-20T09:56:03.768Z,3.83
2023-05-20T09:58:31.528Z,6.47
2023-05-20T10:00:58.922Z,5.85
2023-05-20T10:03:28.316Z,7.05
2023-05-20T10:06:21.512Z,4.35
2023-05-20T10:08:48.544Z,4.28
2023-05-20T10:11:40.915Z,3.72
2023-05-20T10:14:42.216Z,4.18
2023-05-20T10:17:27.541Z,5.75
2023-05-20T10:20:02.014Z,5.93
2023-05-20T10:22:31.717Z,6.18
2023-05-20T10:25:07.402Z,6.05
2023-05-20T10:27:47.055Z,5.53
2023-05-20T10:30:22.063Z,4.32
2023-05-20T10:33:05.104Z,7.53
2023-05-20T10:35:32.807Z,5.35
2023-05-20T10:38:13.201Z,5.88
2023-05-20T10:40:41.064Z,4.05
2023-05-20T10:43:15.216Z,4.38
2023-05-20T10:45:53.644Z,4.35
2023-05-20T10:48:29.894Z,5.97
2023-05-20T10:50:59.797Z,5.97
2023-05-20T10:53:34.382Z,6.30
2023-05-20T10:56:02.716Z,7.10
2023-05-20T10:58:37.967Z,7.20
2023-05-20T11:01:05.314Z,5.32
2023-05-20T11:03:35.020Z,5.45
2023-05-20T11:06:02.270Z,4.50
2023-05-20T11:08:33.944Z,4.10
2023-05-20T11:11:01.062Z,4.53
2023-05-20T11:13:28.352Z,4.23
2023-05-20T11:15:55.787Z,3.87
2023-05-20T11:18:22.976Z,3.85
2023-05-20T11:20:50.235Z,3.90
2023-05-20T11:23:17.469Z,3.53
2023-05-20T11:25:44.605Z,3.92
2023-05-20T11:28:15.026Z,4.10
2023-05-20T11:30:45.561Z,4.93
2023-05-20T11:33:14.204Z,4.00
2023-05-20T11:35:49.775Z,3.83
2023-05-20T11:38:17.603Z,4.70
2023-05-20T11:43:19.440Z,4.28
2023-05-20T11:48:17.608Z,5.28
2023-05-20T11:50:46.524Z,5.47
2023-05-20T11:53:18.874Z,6.88
2023-05-20T11:55:48.953Z,4.65
2023-05-20T11:58:18.482Z,5.88
2023-05-20T12:00:52.804Z,3.85
2023-05-20T12:03:22.958Z,4.97
2023-05-20T12:05:51.350Z,7.00
2023-05-20T12:08:18.711Z,6.32
2023-05-20T12:10:46.002Z,6.63
2023-05-20T12:13:13.748Z,7.38
2023-05-20T12:15:41.337Z,3.85
2023-05-20T12:18:08.533Z,2.97
2023-05-20T12:20:37.324Z,3.80
2023-05-20T12:23:04.990Z,5.53
2023-05-20T12:25:32.170Z,5.47
2023-05-20T12:27:59.737Z,4.28
2023-05-20T12:30:26.864Z,4.55
2023-05-20T12:32:54.108Z,4.33
2023-05-20T12:35:40.879Z,3.57
2023-05-20T12:38:08.335Z,5.47
2023-05-20T12:40:36.670Z,6.35
2023-05-20T12:43:05.377Z,4.05
2023-05-20T12:45:32.506Z,4.35
2023-05-20T12:48:00.456Z,3.08
2023-05-20T12:52:54.738Z,5.70
2023-05-20T12:55:22.187Z,4.80
2023-05-20T12:57:50.517Z,5.13
2023-05-20T13:00:18.092Z,3.70
2023-05-20T13:02:45.400Z,4.05
2023-05-20T13:05:13.400Z,3.97
2023-05-20T13:10:10.487Z,3.38
2023-05-20T13:12:37.920Z,3.65
2023-05-20T13:15:05.493Z,3.83
2023-05-20T13:17:32.629Z,3.95
2023-05-20T13:19:59.725Z,4.30
2023-05-20T13:22:26.805Z,4.40
2023-05-20T13:24:54.072Z,4.30
2023-05-20T13:27:21.283Z,3.13
2023-05-20T13:29:48.376Z,5.10
2023-05-20T13:32:15.700Z,3.45
2023-05-20T13:34:43.023Z,7.70
2023-05-20T13:37:13.070Z,8.02
2023-05-20T13:39:40.293Z,6.07
2023-05-20T13:42:07.408Z,4.27
2023-05-20T13:44:34.515Z,4.72
2023-05-20T13:47:01.678Z,3.22
2023-05-20T13:49:28.975Z,3.45
2023-05-20T13:51:56.321Z,4.37
2023-05-20T13:54:23.440Z,6.23
2023-05-20T13:56:50.505Z,5.07
2023-05-20T13:59:17.708Z,4.10
2023-05-20T14:01:46.638Z,4.03
2023-05-20T14:04:13.839Z,4.72
2023-05-20T14:06:41.615Z,4.80
2023-05-20T14:09:09.361Z,5.22
2023-05-20T14:11:36.798Z,6.75
2023-05-20T14:14:03.905Z,4.60
2023-05-20T14:16:31.920Z,5.03
2023-05-20T14:19:02.344Z,5.25
2023-05-20T14:21:29.505Z,3.20
2023-05-20T14:23:57.570Z,3.72
2023-05-20T14:28:52.341Z,4.63
2023-05-20T14:31:19.553Z,5.75
2023-05-20T14:33:46.761Z,5.00
2023-05-20T14:36:13.890Z,4.65
2023-05-20T14:38:40.966Z,4.35
2023-05-20T14:41:08.027Z,5.25
2023-05-20T14:43:35.084Z,7.97
2023-05-20T14:46:03.208Z,4.85
2023-05-20T14:48:30.322Z,3.80
2023-05-20T14:50:57.478Z,3.75
2023-05-20T14:53:24.576Z,5.28
2023-05-20T14:55:51.631Z,4.05
2023-05-20T14:58:18.762Z,4.43
2023-05-20T15:00:46.094Z,4.68
2023-05-20T15:03:13.321Z,4.00
2023-05-20T15:05:41.331Z,6.63
2023-05-20T15:08:08.440Z,4.20
2023-05-20T15:10:36.297Z,3.30
2023-05-20T15:13:03.590Z,5.95
2023-05-20T15:15:30.813Z,5.47
2023-05-20T15:17:57.920Z,4.85
2023-05-20T15:20:25.108Z,4.22
2023-05-20T15:22:52.276Z,5.10
2023-05-20T15:25:19.388Z,4.65
2023-05-20T15:27:46.494Z,4.60
2023-05-20T15:30:14.379Z,3.58
2023-05-20T15:32:42.885Z,3.78
2023-05-20T15:35:10.224Z,3.50
2023-05-20T15:37:37.371Z,4.18
2023-05-20T15:40:04.737Z,5.22
2023-05-20T15:42:31.961Z,6.13
2023-05-20T15:44:59.179Z,3.13
2023-05-20T15:47:26.422Z,6.53
2023-05-20T15:49:54.620Z,3.28
2023-05-20T15:52:21.790Z,5.75
2023-05-20T15:54:48.893Z,4.90
2023-05-20T15:57:16.140Z,5.80
2023-05-20T15:59:43.341Z,5.25
2023-05-20T16:02:10.571Z,6.75
2023-05-20T16:04:37.693Z,5.20
2023-05-20T16:07:04.945Z,4.60
2023-05-20T16:09:32.003Z,5.10
2023-05-20T16:11:59.132Z,3.67
2023-05-20T16:14:26.256Z,6.57
2023-05-20T16:16:53.465Z,9.50
2023-05-20T16:19:20.629Z,4.15
2023-05-20T16:21:47.702Z,6.55
2023-05-20T16:24:15.507Z,7.25
2023-05-20T16:26:42.647Z,4.07
2023-05-20T16:29:09.834Z,6.70
2023-05-20T16:31:37.068Z,5.75
2023-05-20T16:34:04.569Z,2.63
2023-05-20T16:36:31.914Z,5.77
2023-05-20T16:38:59.035Z,3.15
2023-05-20T16:41:26.390Z,3.63
2023-05-20T16:43:53.534Z,4.68
2023-05-20T16:46:21.596Z,3.10
2023-05-20T16:48:48.724Z,4.32
2023-05-20T16:51:15.816Z,5.97
2023-05-20T16:53:42.944Z,3.22
2023-05-20T16:56:10.148Z,3.78
2023-05-20T16:58:37.359Z,4.13
2023-05-20T17:01:04.536Z,4.28
2023-05-20T17:03:32.391Z,3.35
2023-05-20T17:05:59.484Z,3.60
2023-05-20T17:08:26.619Z,5.28
2023-05-20T17:10:54.418Z,2.63
2023-05-20T17:13:22.193Z,5.75
2023-05-20T17:15:49.386Z,2.45
2023-05-20T17:18:16.884Z,2.38
2023-05-20T17:20:43.940Z,4.68
2023-05-20T17:23:11.173Z,2.72
2023-05-20T17:25:40.974Z,3.40
2023-05-20T17:28:08.079Z,1.52
2023-05-20T17:30:35.285Z,3.88
2023-05-20T17:33:02.687Z,5.88
2023-05-20T17:35:31.712Z,3.80
2023-05-20T17:37:58.944Z,2.47
2023-05-20T17:40:26.197Z,2.38
2023-05-20T17:42:53.365Z,2.38
2023-05-20T17:45:20.474Z,4.40
2023-05-20T17:47:47.648Z,3.45
2023-05-20T17:50:16.659Z,4.05
2023-05-20T17:52:43.801Z,2.85
2023-05-20T17:55:11.096Z,2.75
2023-05-20T17:57:38.252Z,1.75
2023-05-20T18:00:06.618Z,2.78
2023-05-20T18:02:33.702Z,5.53
2023-05-20T18:05:01.213Z,5.18
2023-05-20T18:07:30.504Z,6.47
2023-05-20T18:09:57.615Z,4.75
2023-05-20T18:12:24.674Z,3.30
2023-05-20T18:14:51.777Z,4.75
2023-05-20T18:17:19.082Z,3.47
2023-05-20T18:19:46.466Z,7.20
2023-05-20T18:22:13.682Z,13.43
2023-05-20T18:24:42.066Z,11.25
2023-05-20T18:27:09.136Z,8.20
2023-05-20T18:29:36.236Z,6.78
2023-05-20T18:32:03.423Z,3.80
2023-05-20T18:34:33.191Z,3.35
2023-05-20T18:37:00.763Z,4.80
2023-05-20T18:39:27.832Z,4.10
2023-05-20T18:41:54.909Z,1.45
2023-05-20T18:44:22.055Z,2.58
2023-05-20T18:46:49.260Z,4.97
2023-05-20T18:49:16.408Z,3.08
2023-05-20T18:51:43.552Z,1.98
2023-05-20T18:54:11.328Z,2.15
2023-05-20T18:56:38.707Z,2.17
2023-05-20T18:59:05.865Z,3.28
2023-05-20T19:01:33.918Z,5.35
2023-05-20T19:04:01.478Z,2.97
2023-05-20T19:06:28.584Z,3.28
2023-05-20T19:08:55.806Z,2.45
2023-05-20T19:11:22.892Z,2.60
2023-05-20T19:13:49.960Z,3.38
2023-05-20T19:16:17.192Z,2.22
2023-05-20T19:18:44.266Z,1.77
2023-05-20T19:21:11.484Z,2.22
2023-05-20T19:23:38.612Z,1.90
2023-05-20T19:26:05.906Z,4.30
2023-05-20T19:28:32.924Z,3.60
2023-05-20T19:31:00.033Z,3.22
2023-05-20T19:33:27.193Z,2.97
2023-05-20T19:35:54.308Z,2.97
2023-05-20T19:38:21.765Z,1.90
2023-05-20T19:40:49.147Z,3.83
2023-05-20T19:43:16.396Z,2.13
2023-05-20T19:45:43.530Z,2.53
2023-05-20T19:48:10.916Z,2.55
2023-05-20T19:50:38.235Z,2.35
2023-05-20T19:53:07.524Z,4.03
2023-05-20T19:55:36.343Z,3.75
2023-05-20T19:58:04.548Z,3.15
2023-05-20T20:00:31.752Z,4.00
2023-05-20T20:02:59.690Z,2.28
2023-05-20T20:05:27.056Z,1.92
2023-05-20T20:07:54.406Z,2.25
2023-05-20T20:10:21.702Z,2.38
2023-05-20T20:12:49.895Z,2.78
2023-05-20T20:15:17.186Z,2.58
2023-05-20T20:17:45.688Z,2.75
2023-05-20T20:20:15.597Z,3.17
2023-05-20T20:22:42.740Z,3.22
2023-05-20T20:25:10.204Z,2.72
2023-05-20T20:27:37.498Z,2.78
2023-05-20T20:30:04.992Z,2.85
2023-05-20T20:32:32.305Z,2.88
2023-05-20T20:34:59.642Z,2.00
2023-05-20T20:37:27.491Z,2.13
2023-05-20T20:39:55.346Z,3.10
2023-05-20T20:42:22.778Z,2.95
2023-05-20T20:44:52.627Z,3.53
2023-05-20T20:47:19.848Z,3.92
2023-05-20T20:49:47.065Z,4.22
2023-05-20T20:52:14.191Z,4.20
2023-05-20T20:54:43.274Z,4.47
2023-05-20T20:57:17.209Z,3.95
2023-05-20T20:59:47.996Z,4.88
2023-05-20T21:02:15.555Z,5.80
2023-05-20T21:04:43.227Z,4.90
2023-05-20T21:07:12.180Z,4.20
2023-05-20T21:09:39.471Z,3.00
2023-05-20T21:12:07.019Z,3.70
2023-05-20T21:14:34.356Z,4.70
2023-05-20T21:17:01.610Z,4.40
2023-05-20T21:19:30.104Z,3.63
2023-05-20T21:21:57.589Z,4.32
2023-05-20T21:24:24.929Z,3.90
2023-05-20T21:26:52.517Z,3.10
2023-05-20T21:29:19.893Z,4.47
2023-05-20T21:31:47.222Z,7.13
2023-05-20T21:34:14.646Z,5.20
2023-05-20T21:36:42.108Z,6.53
2023-05-20T21:39:09.341Z,5.75
2023-05-20T21:41:36.717Z,6.43
2023-05-20T21:44:04.118Z,9.65
2023-05-20T21:46:31.664Z,8.55
2023-05-20T21:48:59.000Z,11.98
2023-05-20T21:51:26.286Z,7.70
2023-05-20T21:53:53.638Z,8.90
2023-05-20T21:56:21.772Z,8.77
2023-05-20T21:58:49.173Z,7.13
2023-05-20T22:01:16.423Z,11.30
2023-05-20T22:03:47.970Z,9.00
2023-05-20T22:06:17.183Z,10.70
2023-05-20T22:08:44.565Z,6.97
2023-05-20T22:11:11.916Z,6.43
2023-05-20T22:13:42.949Z,7.82
2023-05-20T22:16:10.506Z,6.38
2023-05-20T22:18:38.649Z,5.93
2023-05-20T22:21:06.618Z,7.22
2023-05-20T22:23:34.046Z,7.15
2023-05-20T22:26:01.829Z,5.90
2023-05-20T22:28:29.166Z,6.07
2023-05-20T22:30:56.690Z,7.80
2023-05-20T22:33:24.480Z,5.78
2023-05-20T22:35:53.629Z,7.40
2023-05-20T22:38:21.554Z,6.65
2023-05-20T22:40:48.895Z,5.53
2023-05-20T22:43:17.499Z,5.18
2023-05-20T22:48:12.506Z,7.00
2023-05-20T22:50:39.546Z,6.15
2023-05-20T22:53:07.216Z,6.28
2023-05-20T22:55:34.653Z,5.95
2023-05-20T22:58:02.366Z,5.97
2023-05-20T23:00:29.765Z,6.80
2023-05-20T23:02:57.101Z,5.38
2023-05-20T23:05:24.247Z,7.38
2023-05-20T23:07:53.104Z,7.28
2023-05-20T23:10:20.541Z,5.75
2023-05-20T23:12:47.744Z,4.10
2023-05-20T23:15:15.007Z,6.03
2023-05-20T23:17:42.769Z,4.38
2023-05-20T23:20:11.329Z,5.00
2023-05-20T23:25:05.952Z,5.40
2023-05-20T23:27:33.471Z,4.75
2023-05-20T23:30:00.690Z,3.40
2023-05-20T23:32:27.873Z,5.03
2023-05-20T23:34:55.326Z,3.83
2023-05-20T23:37:22.728Z,3.55
2023-05-20T23:39:49.861Z,3.85
2023-05-20T23:42:16.936Z,3.70
2023-05-20T23:44:44.060Z,5.32
2023-05-20T23:47:13.612Z,5.32
2023-05-20T23:49:41.636Z,5.38
2023-05-20T23:52:08.857Z,6.22
2023-05-20T23:54:35.998Z,4.10
2023-05-20T23:57:03.182Z,4.25
2023-05-20T23:59:30.289Z,4.60
